createdAt,value
2018-03-30T00:01:18.125Z,3.50
2018-03-30T00:03:50.368Z,3.40
2018-03-30T00:06:18.619Z,3.40
2018-03-30T00:08:46.096Z,3.40
2018-03-30T00:11:14.373Z,3.30
2018-03-30T00:13:42.647Z,3.40
2018-03-30T00:16:10.912Z,3.40
2018-03-30T00:18:39.155Z,3.30
2018-03-30T00:21:06.651Z,3.20
2018-03-30T00:23:34.909Z,3.20
2018-03-30T00:26:03.195Z,3.20
2018-03-30T00:28:31.465Z,3.20
2018-03-30T00:31:02.389Z,3.30
2018-03-30T00:33:29.871Z,3.30
2018-03-30T00:35:58.118Z,3.30
2018-03-30T00:38:25.629Z,3.30
2018-03-30T00:40:53.139Z,3.30
2018-03-30T00:43:21.393Z,3.30
2018-03-30T00:45:48.893Z,3.20
2018-03-30T00:48:16.375Z,3.30
2018-03-30T00:50:43.903Z,3.30
2018-03-30T00:53:23.854Z,3.40
2018-03-30T00:55:51.352Z,3.30
2018-03-30T00:58:18.861Z,3.20
2018-03-30T01:00:47.130Z,3.30
2018-03-30T01:03:15.512Z,3.30
2018-03-30T01:05:43.780Z,3.30
2018-03-30T01:08:12.034Z,3.30
2018-03-30T01:10:39.540Z,3.30
2018-03-30T01:13:07.034Z,3.30
2018-03-30T01:15:34.628Z,3.20
2018-03-30T01:18:02.908Z,3.20
2018-03-30T01:20:31.147Z,3.20
2018-03-30T01:22:58.632Z,3.20
2018-03-30T01:25:26.922Z,3.00
2018-03-30T01:27:54.477Z,2.90
2018-03-30T01:30:21.977Z,2.90
2018-03-30T01:32:49.456Z,2.90
2018-03-30T01:35:17.048Z,2.90
2018-03-30T01:37:44.541Z,3.00
2018-03-30T01:40:12.037Z,3.10
2018-03-30T01:42:40.279Z,2.90
2018-03-30T01:45:07.888Z,2.90
2018-03-30T01:47:36.154Z,2.90
2018-03-30T01:50:04.428Z,3.00
2018-03-30T01:52:32.673Z,2.90
2018-03-30T01:55:00.169Z,2.80
2018-03-30T01:57:28.588Z,2.90
2018-03-30T01:59:56.213Z,2.90
2018-03-30T02:02:23.708Z,3.00
2018-03-30T02:04:51.227Z,3.00
2018-03-30T02:07:18.733Z,2.90
2018-03-30T02:09:46.212Z,3.00
2018-03-30T02:12:13.725Z,2.90
2018-03-30T02:14:41.258Z,2.80
2018-03-30T02:17:08.749Z,3.00
2018-03-30T02:19:36.251Z,3.00
2018-03-30T02:22:04.529Z,3.10
2018-03-30T02:24:32.799Z,3.00
2018-03-30T02:27:00.297Z,2.90
2018-03-30T02:29:27.802Z,2.90
2018-03-30T02:31:56.070Z,3.10
2018-03-30T02:34:23.583Z,3.10
2018-03-30T02:36:51.062Z,3.10
2018-03-30T02:39:18.551Z,3.10
2018-03-30T02:41:46.828Z,3.20
2018-03-30T02:44:15.085Z,3.30
2018-03-30T02:46:42.677Z,3.20
2018-03-30T02:49:10.156Z,3.40
2018-03-30T02:51:37.657Z,3.40
2018-03-30T02:54:05.151Z,3.40
2018-03-30T02:56:32.648Z,3.40
2018-03-30T02:59:00.161Z,3.40
2018-03-30T03:01:27.721Z,3.30
2018-03-30T03:03:55.197Z,3.40
2018-03-30T03:06:22.712Z,3.30
2018-03-30T03:08:50.960Z,3.40
2018-03-30T03:11:18.472Z,3.40
2018-03-30T03:13:45.979Z,3.30
2018-03-30T03:16:13.469Z,3.20
2018-03-30T03:18:41.742Z,3.30
2018-03-30T03:21:09.985Z,3.40
2018-03-30T03:23:37.481Z,3.30
2018-03-30T03:26:04.965Z,3.40
2018-03-30T03:28:32.477Z,3.40
2018-03-30T03:31:00.732Z,3.50
2018-03-30T03:33:28.221Z,3.50
2018-03-30T03:35:55.744Z,3.50
2018-03-30T03:38:23.355Z,3.50
2018-03-30T03:40:50.897Z,3.50
2018-03-30T03:43:18.379Z,3.60
2018-03-30T03:45:45.883Z,3.60
2018-03-30T03:48:14.177Z,3.70
2018-03-30T03:50:42.449Z,3.70
2018-03-30T03:53:10.749Z,3.70
2018-03-30T03:55:38.335Z,3.70
2018-03-30T03:58:05.860Z,3.70
2018-03-30T04:00:34.101Z,3.70
2018-03-30T04:03:02.371Z,3.80
2018-03-30T04:05:29.848Z,3.80
2018-03-30T04:07:58.099Z,3.90
2018-03-30T04:10:25.645Z,3.90
2018-03-30T04:12:53.137Z,4.00
2018-03-30T04:15:21.375Z,4.00
2018-03-30T04:17:48.872Z,3.90
2018-03-30T04:20:16.422Z,4.00
2018-03-30T04:22:44.707Z,4.10
2018-03-30T04:25:12.248Z,4.00
2018-03-30T04:27:40.524Z,3.80
2018-03-30T04:30:08.817Z,3.70
2018-03-30T04:32:36.317Z,3.60
2018-03-30T04:35:03.809Z,3.80
2018-03-30T04:37:32.082Z,3.90
2018-03-30T04:40:00.394Z,3.90
2018-03-30T04:42:27.880Z,3.80
2018-03-30T04:44:55.371Z,3.90
2018-03-30T04:47:23.673Z,4.00
2018-03-30T04:49:51.170Z,4.00
2018-03-30T04:52:18.774Z,4.00
2018-03-30T04:54:47.015Z,4.10
2018-03-30T04:57:14.508Z,4.10
2018-03-30T04:59:41.998Z,4.00
2018-03-30T05:02:09.504Z,3.80
2018-03-30T05:04:37.791Z,3.80
2018-03-30T05:07:06.077Z,4.00
2018-03-30T05:09:33.589Z,3.90
2018-03-30T05:12:01.226Z,3.90
2018-03-30T05:14:28.708Z,3.80
2018-03-30T05:16:56.197Z,3.60
2018-03-30T05:19:23.707Z,3.60
2018-03-30T05:21:51.216Z,3.50
2018-03-30T05:24:18.713Z,3.70
2018-03-30T05:26:46.241Z,3.90
2018-03-30T05:29:13.785Z,4.10
2018-03-30T05:31:41.272Z,4.20
2018-03-30T05:34:08.768Z,4.10
2018-03-30T05:36:36.276Z,4.10
2018-03-30T05:39:03.773Z,4.20
2018-03-30T05:41:31.386Z,4.30
2018-03-30T05:43:58.920Z,4.40
2018-03-30T05:46:27.193Z,4.20
2018-03-30T05:48:55.461Z,4.10
2018-03-30T05:51:23.734Z,4.10
2018-03-30T05:53:51.999Z,3.90
2018-03-30T05:56:20.259Z,4.10
2018-03-30T05:58:47.854Z,4.10
2018-03-30T06:01:15.336Z,4.20
2018-03-30T06:03:42.845Z,4.20
2018-03-30T06:06:11.146Z,4.00
2018-03-30T06:08:38.688Z,3.90
2018-03-30T06:11:06.968Z,4.10
2018-03-30T06:13:35.245Z,4.00
2018-03-30T06:16:03.509Z,4.10
2018-03-30T06:18:31.816Z,4.60
2018-03-30T06:20:59.359Z,4.60
2018-03-30T06:23:26.914Z,5.00
2018-03-30T06:25:54.410Z,5.60
2018-03-30T06:28:21.882Z,5.70
2018-03-30T06:30:49.382Z,5.80
2018-03-30T06:33:16.941Z,5.90
2018-03-30T06:35:44.444Z,5.60
2018-03-30T06:38:11.946Z,5.40
2018-03-30T06:40:40.205Z,4.90
2018-03-30T06:43:08.616Z,5.00
2018-03-30T06:45:36.095Z,4.90
2018-03-30T06:48:03.597Z,6.10
2018-03-30T06:50:31.927Z,6.50
2018-03-30T06:52:59.407Z,6.40
2018-03-30T06:55:26.913Z,6.30
2018-03-30T06:57:54.490Z,6.40
2018-03-30T07:00:22.003Z,6.60
2018-03-30T07:02:50.303Z,6.50
2018-03-30T07:05:17.789Z,6.40
2018-03-30T07:07:45.317Z,6.60
2018-03-30T07:10:12.905Z,7.60
2018-03-30T07:12:40.393Z,8.00
2018-03-30T07:15:07.875Z,8.00
2018-03-30T07:17:36.126Z,7.20
2018-03-30T07:20:03.632Z,7.20
2018-03-30T07:22:31.258Z,6.90
2018-03-30T07:24:58.693Z,6.60
2018-03-30T07:27:26.284Z,6.90
2018-03-30T07:29:53.792Z,6.90
2018-03-30T07:32:21.287Z,6.70
2018-03-30T07:34:49.582Z,6.80
2018-03-30T07:37:17.088Z,6.70
2018-03-30T07:39:44.573Z,6.90
2018-03-30T07:42:12.947Z,7.10
2018-03-30T07:44:41.202Z,7.00
2018-03-30T07:47:08.697Z,6.90
2018-03-30T07:49:36.225Z,6.80
2018-03-30T07:52:04.487Z,7.10
2018-03-30T07:54:31.989Z,7.10
2018-03-30T07:56:59.548Z,7.30
2018-03-30T07:59:27.034Z,7.50
2018-03-30T08:01:54.566Z,7.50
2018-03-30T08:04:22.091Z,7.70
2018-03-30T08:06:50.415Z,7.70
2018-03-30T08:09:17.906Z,7.60
2018-03-30T08:11:45.622Z,7.80
2018-03-30T08:14:13.113Z,7.90
2018-03-30T08:16:40.736Z,8.00
2018-03-30T08:19:08.291Z,8.00
2018-03-30T08:21:35.832Z,8.00
2018-03-30T08:24:04.095Z,8.30
2018-03-30T08:26:31.655Z,8.20
2018-03-30T08:28:59.959Z,8.60
2018-03-30T08:31:27.449Z,8.50
2018-03-30T08:33:54.983Z,8.60
2018-03-30T08:36:22.505Z,8.50
2018-03-30T08:38:50.761Z,8.50
2018-03-30T08:41:18.278Z,8.50
2018-03-30T08:43:45.826Z,8.60
2018-03-30T08:46:13.323Z,8.60
2018-03-30T08:48:40.813Z,8.60
2018-03-30T08:51:08.373Z,8.40
2018-03-30T08:53:35.905Z,8.30
2018-03-30T08:56:03.387Z,8.40
2018-03-30T08:58:30.859Z,8.30
2018-03-30T09:00:58.385Z,8.20
2018-03-30T09:03:26.651Z,8.40
2018-03-30T09:05:54.965Z,8.60
2018-03-30T09:08:22.509Z,8.50
2018-03-30T09:10:49.991Z,8.50
2018-03-30T09:13:17.483Z,8.40
2018-03-30T09:15:44.993Z,8.50
2018-03-30T09:18:12.478Z,8.70
2018-03-30T09:20:40.015Z,8.60
2018-03-30T09:23:07.508Z,8.60
2018-03-30T09:25:35.802Z,8.80
2018-03-30T09:28:04.072Z,8.80
2018-03-30T09:30:32.350Z,8.70
2018-03-30T09:33:00.605Z,9.10
2018-03-30T09:35:28.201Z,9.00
2018-03-30T09:37:55.684Z,8.90
2018-03-30T09:40:23.154Z,8.90
2018-03-30T09:42:50.773Z,8.90
2018-03-30T09:45:18.283Z,8.80
2018-03-30T09:47:45.771Z,8.80
2018-03-30T09:50:14.049Z,8.80
2018-03-30T09:52:42.347Z,8.90
2018-03-30T09:55:09.844Z,8.90
2018-03-30T09:57:37.320Z,8.70
2018-03-30T10:00:04.829Z,8.80
2018-03-30T10:02:32.308Z,8.70
2018-03-30T10:05:00.382Z,8.80
2018-03-30T10:07:27.990Z,8.80
2018-03-30T10:09:55.479Z,9.00
2018-03-30T10:12:22.958Z,9.40
2018-03-30T10:14:50.487Z,9.20
2018-03-30T10:17:18.153Z,9.20
2018-03-30T10:19:45.669Z,9.50
2018-03-30T10:22:13.968Z,10.40
2018-03-30T10:24:41.456Z,10.40
2018-03-30T10:27:09.051Z,10.70
2018-03-30T10:29:37.321Z,11.10
2018-03-30T10:32:05.594Z,11.00
2018-03-30T10:34:33.887Z,11.20
2018-03-30T10:37:01.446Z,11.20
2018-03-30T10:39:28.931Z,11.30
2018-03-30T10:41:56.483Z,11.00
2018-03-30T10:44:23.983Z,11.10
2018-03-30T10:46:51.538Z,11.20
2018-03-30T10:49:19.039Z,11.10
2018-03-30T10:51:46.534Z,11.30
2018-03-30T10:54:14.040Z,11.80
2018-03-30T10:56:42.293Z,12.10
2018-03-30T10:59:09.788Z,12.10
2018-03-30T11:01:37.311Z,12.50
2018-03-30T11:04:05.563Z,12.90
2018-03-30T11:06:33.108Z,12.90
2018-03-30T11:09:00.601Z,12.90
2018-03-30T11:11:28.880Z,13.30
2018-03-30T11:13:57.167Z,13.30
2018-03-30T11:16:25.426Z,13.70
2018-03-30T11:18:53.702Z,13.70
2018-03-30T11:21:21.963Z,13.40
2018-03-30T11:23:49.553Z,13.40
2018-03-30T11:26:17.110Z,13.40
2018-03-30T11:28:44.630Z,12.90
2018-03-30T11:31:12.139Z,13.00
2018-03-30T11:33:39.638Z,13.50
2018-03-30T11:36:07.207Z,13.60
2018-03-30T11:38:34.673Z,13.80
2018-03-30T11:41:02.965Z,14.40
2018-03-30T11:43:31.261Z,14.00
2018-03-30T11:45:58.743Z,14.00
2018-03-30T11:48:26.352Z,13.50
2018-03-30T11:50:54.655Z,13.30
2018-03-30T11:53:22.177Z,13.30
2018-03-30T11:55:50.454Z,13.30
2018-03-30T11:58:18.732Z,13.20
2018-03-30T12:00:47.107Z,13.20
2018-03-30T12:03:15.379Z,13.10
2018-03-30T12:05:43.647Z,13.10
2018-03-30T12:08:11.940Z,13.00
2018-03-30T12:10:39.501Z,12.90
2018-03-30T12:13:07.012Z,12.90
2018-03-30T12:15:34.504Z,13.10
2018-03-30T12:18:02.776Z,12.90
2018-03-30T12:20:31.036Z,12.70
2018-03-30T12:22:58.568Z,12.60
2018-03-30T12:25:26.052Z,12.80
2018-03-30T12:27:54.325Z,12.80
2018-03-30T12:30:22.584Z,13.00
2018-03-30T12:32:50.084Z,13.00
2018-03-30T12:35:17.563Z,12.70
2018-03-30T12:37:45.921Z,12.70
2018-03-30T12:40:13.421Z,12.90
2018-03-30T12:42:41.029Z,13.10
2018-03-30T12:45:08.518Z,13.20
2018-03-30T12:47:36.013Z,12.90
2018-03-30T12:50:03.512Z,12.90
2018-03-30T12:52:31.075Z,12.90
2018-03-30T12:54:58.615Z,12.90
2018-03-30T12:57:26.128Z,12.80
2018-03-30T12:59:55.067Z,12.90
2018-03-30T13:02:22.566Z,13.00
2018-03-30T13:04:50.077Z,13.00
2018-03-30T13:07:17.632Z,12.90
2018-03-30T13:09:45.127Z,12.90
2018-03-30T13:12:12.614Z,13.10
2018-03-30T13:14:40.125Z,13.00
2018-03-30T13:17:07.607Z,12.90
2018-03-30T13:19:35.087Z,13.10
2018-03-30T13:22:02.593Z,13.20
2018-03-30T13:24:30.096Z,13.30
2018-03-30T13:26:57.585Z,13.30
2018-03-30T13:29:25.094Z,13.30
2018-03-30T13:31:52.576Z,13.20
2018-03-30T13:34:20.860Z,13.30
2018-03-30T13:36:49.103Z,13.50
2018-03-30T13:39:16.594Z,13.40
2018-03-30T13:41:44.857Z,13.50
2018-03-30T13:44:13.140Z,13.50
2018-03-30T13:46:41.420Z,13.60
2018-03-30T13:49:08.982Z,13.50
2018-03-30T13:51:44.080Z,13.40
2018-03-30T13:54:12.257Z,13.30
2018-03-30T13:56:45.683Z,13.30
2018-03-30T13:59:15.733Z,13.20
2018-03-30T14:01:46.832Z,13.20
2018-03-30T14:07:24.899Z,13.70
2018-03-30T14:09:52.506Z,13.60
2018-03-30T14:15:18.501Z,13.60
2018-03-30T14:17:49.056Z,13.60
2018-03-30T14:20:17.313Z,13.50
2018-03-30T14:22:59.485Z,13.70
2018-03-30T14:25:45.669Z,13.70
2018-03-30T14:28:18.468Z,13.80
2018-03-30T14:30:49.391Z,14.00
2018-03-30T14:33:18.276Z,14.20
2018-03-30T14:35:56.333Z,14.00
2018-03-30T14:38:27.608Z,14.00
2018-03-30T14:40:57.419Z,13.80
2018-03-30T14:46:29.197Z,13.80
2018-03-30T14:48:57.445Z,13.80
2018-03-30T14:54:33.223Z,14.00
2018-03-30T14:57:01.571Z,13.90
2018-03-30T14:59:32.725Z,13.60
2018-03-30T15:02:02.161Z,13.70
2018-03-30T15:04:32.204Z,13.70
2018-03-30T15:07:01.776Z,13.90
2018-03-30T15:09:50.230Z,13.80
2018-03-30T15:12:20.412Z,13.80
2018-03-30T15:14:49.340Z,14.00
2018-03-30T15:17:27.640Z,13.90
2018-03-30T15:19:58.663Z,13.70
2018-03-30T15:22:30.738Z,13.70
2018-03-30T15:25:13.571Z,13.80
2018-03-30T15:27:42.764Z,13.80
2018-03-30T15:30:15.924Z,13.80
2018-03-30T15:32:57.943Z,13.90
2018-03-30T15:35:26.330Z,13.70
2018-03-30T15:37:53.821Z,13.70
2018-03-30T15:40:21.319Z,13.60
2018-03-30T15:42:52.182Z,13.70
2018-03-30T15:45:32.277Z,13.70
2018-03-30T15:47:59.790Z,13.70
2018-03-30T15:50:27.286Z,13.70
2018-03-30T15:52:54.796Z,13.70
2018-03-30T15:55:22.276Z,13.80
2018-03-30T15:57:49.783Z,13.90
2018-03-30T16:00:19.614Z,13.70
2018-03-30T16:02:47.883Z,13.70
2018-03-30T16:05:16.156Z,13.60
2018-03-30T16:07:44.422Z,13.60
2018-03-30T16:10:16.165Z,13.60
2018-03-30T16:12:45.628Z,13.50
2018-03-30T16:15:13.128Z,13.60
2018-03-30T16:17:40.628Z,13.70
2018-03-30T16:20:07.690Z,13.70
2018-03-30T16:22:34.708Z,13.50
2018-03-30T16:25:01.752Z,13.50
2018-03-30T16:27:29.539Z,13.40
2018-03-30T16:29:56.679Z,13.40
2018-03-30T16:32:23.685Z,13.50
2018-03-30T16:34:51.588Z,13.50
2018-03-30T16:37:18.597Z,13.50
2018-03-30T16:39:46.381Z,13.70
2018-03-30T16:42:13.419Z,13.60
2018-03-30T16:44:41.214Z,13.50
2018-03-30T16:47:08.217Z,13.40
2018-03-30T16:49:35.994Z,13.40
2018-03-30T16:52:03.004Z,13.40
2018-03-30T16:54:29.992Z,13.40
2018-03-30T16:56:56.991Z,13.30
2018-03-30T16:59:24.000Z,13.20
2018-03-30T17:01:51.026Z,13.30
2018-03-30T17:04:18.078Z,13.20
2018-03-30T17:06:45.087Z,13.10
2018-03-30T17:09:12.985Z,13.00
2018-03-30T17:11:40.020Z,13.00
2018-03-30T17:14:07.016Z,12.90
2018-03-30T17:16:34.064Z,12.90
2018-03-30T17:19:01.101Z,12.90
2018-03-30T17:21:28.098Z,12.90
2018-03-30T17:23:55.099Z,12.90
2018-03-30T17:26:22.105Z,12.80
2018-03-30T17:28:49.135Z,12.70
2018-03-30T17:31:16.893Z,12.60
2018-03-30T17:33:44.659Z,12.50
2018-03-30T17:36:11.674Z,12.40
2018-03-30T17:38:39.461Z,12.30
2018-03-30T17:41:07.246Z,12.20
2018-03-30T17:43:34.277Z,12.20
2018-03-30T17:46:01.337Z,12.20
2018-03-30T17:48:28.369Z,12.10
2018-03-30T17:50:56.245Z,12.00
2018-03-30T17:53:23.235Z,12.00
2018-03-30T17:55:50.240Z,12.00
2018-03-30T17:58:17.390Z,11.90
2018-03-30T18:00:44.405Z,11.90
2018-03-30T18:03:12.215Z,11.70
2018-03-30T18:05:40.305Z,11.70
2018-03-30T18:08:07.315Z,11.70
2018-03-30T18:10:34.338Z,11.70
2018-03-30T18:13:02.124Z,11.60
2018-03-30T18:15:29.116Z,11.60
2018-03-30T18:17:56.124Z,11.60
2018-03-30T18:20:23.262Z,11.60
2018-03-30T18:22:50.266Z,11.40
2018-03-30T18:25:18.143Z,11.40
2018-03-30T18:27:46.402Z,11.40
2018-03-30T18:30:13.477Z,11.40
2018-03-30T18:32:40.556Z,11.30
2018-03-30T18:35:07.519Z,11.30
2018-03-30T18:37:35.331Z,11.20
2018-03-30T18:40:02.386Z,11.10
2018-03-30T18:42:29.374Z,11.00
2018-03-30T18:44:56.384Z,10.90
2018-03-30T18:47:23.509Z,10.90
2018-03-30T18:49:50.552Z,10.90
2018-03-30T18:52:18.420Z,10.70
2018-03-30T18:54:46.192Z,10.70
2018-03-30T18:57:13.211Z,10.70
2018-03-30T18:59:40.989Z,10.60
2018-03-30T19:02:08.002Z,10.50
2018-03-30T19:04:35.094Z,10.50
2018-03-30T19:07:02.228Z,10.40
2018-03-30T19:09:30.091Z,10.40
2018-03-30T19:11:57.874Z,10.40
2018-03-30T19:14:24.895Z,10.30
2018-03-30T19:16:52.669Z,10.30
2018-03-30T19:19:19.680Z,10.20
2018-03-30T19:21:46.751Z,10.20
2018-03-30T19:24:14.517Z,10.30
2018-03-30T19:26:42.282Z,10.20
2018-03-30T19:29:10.038Z,10.20
2018-03-30T19:31:37.812Z,10.20
2018-03-30T19:34:04.804Z,10.10
2018-03-30T19:36:31.907Z,10.10
2018-03-30T19:38:58.900Z,10.10
2018-03-30T19:41:25.887Z,10.00
2018-03-30T19:43:53.659Z,10.00
2018-03-30T19:46:20.662Z,10.00
2018-03-30T19:48:47.667Z,10.10
2018-03-30T19:51:14.675Z,10.10
2018-03-30T19:53:42.452Z,10.00
2018-03-30T19:56:09.491Z,9.90
2018-03-30T19:58:37.370Z,9.80
2018-03-30T20:01:04.408Z,9.80
2018-03-30T20:03:31.453Z,9.80
2018-03-30T20:05:58.445Z,9.80
2018-03-30T20:08:25.478Z,9.80
2018-03-30T20:10:52.589Z,9.70
2018-03-30T20:13:19.594Z,9.60
2018-03-30T20:15:46.610Z,9.60
2018-03-30T20:18:13.638Z,9.60
2018-03-30T20:20:40.661Z,9.70
2018-03-30T20:23:08.428Z,9.50
2018-03-30T20:25:36.216Z,9.30
2018-03-30T20:28:03.236Z,9.20
2018-03-30T20:30:31.109Z,9.50
2018-03-30T20:32:58.120Z,9.40
2018-03-30T20:35:25.166Z,9.30
2018-03-30T20:37:52.157Z,9.40
2018-03-30T20:40:19.152Z,9.40
2018-03-30T20:42:46.232Z,9.50
2018-03-30T20:45:13.992Z,9.50
2018-03-30T20:47:41.756Z,9.40
2018-03-30T20:50:09.511Z,9.40
2018-03-30T20:52:37.279Z,9.30
2018-03-30T20:55:05.147Z,9.00
2018-03-30T20:57:32.205Z,9.00
2018-03-30T20:59:59.222Z,8.90
2018-03-30T21:02:27.044Z,9.10
2018-03-30T21:04:54.148Z,9.00
2018-03-30T21:07:21.907Z,9.10
2018-03-30T21:09:49.688Z,9.20
2018-03-30T21:12:16.686Z,9.10
2018-03-30T21:14:43.692Z,9.20
2018-03-30T21:17:10.815Z,9.40
2018-03-30T21:19:37.838Z,9.40
2018-03-30T21:22:05.601Z,9.30
2018-03-30T21:24:33.475Z,9.20
2018-03-30T21:27:01.251Z,9.20
2018-03-30T21:29:28.272Z,9.10
2018-03-30T21:31:55.271Z,9.10
2018-03-30T21:34:22.403Z,8.90
2018-03-30T21:36:49.411Z,8.90
2018-03-30T21:39:17.192Z,8.80
2018-03-30T21:41:44.978Z,8.80
2018-03-30T21:44:11.983Z,8.70
2018-03-30T21:46:39.761Z,8.70
2018-03-30T21:49:07.533Z,8.70
2018-03-30T21:51:34.567Z,8.60
2018-03-30T21:54:02.332Z,8.70
2018-03-30T21:56:30.114Z,8.70
2018-03-30T21:58:57.111Z,8.70
2018-03-30T22:01:24.118Z,8.60
2018-03-30T22:03:51.278Z,8.60
2018-03-30T22:06:18.291Z,8.70
2018-03-30T22:08:45.290Z,8.60
2018-03-30T22:11:12.303Z,8.50
2018-03-30T22:13:39.305Z,8.40
2018-03-30T22:16:07.180Z,8.30
2018-03-30T22:18:34.947Z,8.20
2018-03-30T22:21:01.988Z,8.20
2018-03-30T22:23:28.993Z,8.20
2018-03-30T22:25:56.077Z,8.20
2018-03-30T22:28:23.863Z,8.20
2018-03-30T22:30:50.858Z,8.20
2018-03-30T22:33:17.942Z,8.10
2018-03-30T22:35:44.958Z,8.10
2018-03-30T22:38:11.977Z,7.90
2018-03-30T22:40:39.028Z,7.90
2018-03-30T22:43:06.053Z,7.80
2018-03-30T22:45:33.073Z,7.80
2018-03-30T22:48:00.064Z,7.80
2018-03-30T22:50:27.073Z,7.70
2018-03-30T22:52:54.093Z,7.80
2018-03-30T22:55:21.860Z,7.70
2018-03-30T22:57:48.885Z,7.70
2018-03-30T23:00:16.680Z,7.60
2018-03-30T23:02:43.708Z,7.60
2018-03-30T23:05:11.455Z,7.60
2018-03-30T23:07:38.521Z,7.50
2018-03-30T23:10:06.288Z,7.50
2018-03-30T23:12:33.309Z,7.40
2018-03-30T23:15:00.315Z,7.50
2018-03-30T23:17:27.328Z,7.50
2018-03-30T23:19:54.335Z,7.40
2018-03-30T23:22:21.415Z,7.40
2018-03-30T23:24:48.430Z,7.40
2018-03-30T23:27:15.441Z,7.30
2018-03-30T23:29:42.453Z,7.40
2018-03-30T23:32:09.516Z,7.40
2018-03-30T23:34:36.523Z,7.30
2018-03-30T23:37:04.296Z,7.30
2018-03-30T23:39:32.078Z,7.20
2018-03-30T23:41:59.077Z,7.20
2018-03-30T23:44:26.068Z,7.20
2018-03-30T23:46:53.085Z,7.30
2018-03-30T23:49:20.866Z,7.20
2018-03-30T23:51:47.875Z,7.20
2018-03-30T23:54:14.877Z,7.20
2018-03-30T23:56:41.890Z,7.10
2018-03-30T23:59:09.639Z,7.10
